roompot.de alexa rank chart, roompot.de alexa rank daily changes

roompot.de alexa rank chart, roompot.de alexa rank daily changes

roompot.de
Actual rank:
298 009

RANK HISTORY

Date Rank Diff
2016/12/02 298 009 -354
2016/12/01 298 363 +8 937
2016/11/30 289 426 +4 950
2016/11/29 284 476 -1 708
2016/11/28 286 184 +6 860
2016/11/27 279 324 +3 424
2016/11/26 275 900 +7 937
2016/11/25 267 963 +21 788
2016/11/24 246 175 -6 912
2016/11/23 253 087 -10 361
2016/11/19 263 448 +119
2016/11/18 263 329 +16 041
2016/11/17 247 288 -5 824
2016/11/16 253 112 -329
2016/11/15 253 441 -11 786
2016/11/14 265 227 -2 563
2016/11/13 267 790 -579
2016/11/12 268 369 -5 806
2016/11/11 274 175 -6 932
2016/11/10 281 107 -4 725
2016/11/09 285 832 +12 880
2016/11/08 272 952 +1 310
2016/11/07 271 642 +3 813
2016/11/06 267 829 +711
2016/11/05 267 118 -2 197
2016/11/04 269 315 -12 548
2016/11/03 281 863 -11 523
2016/11/02 293 386 -9 077
2016/11/01 302 463 -4 926
2016/10/31 307 389 +19 360
2016/10/30 288 029 -653
2016/10/29 288 682 -6 287
2016/10/28 294 969 -11 027
2016/10/27 305 996 +15 681
2016/10/26 290 315 -4 746
2016/10/25 295 061 -29 007
2016/10/24 324 068 +7 067
2016/10/23 317 001 +5 824
2016/10/22 311 177 -15 662
2016/10/21 326 839 -8 658
2016/10/20 335 497 -1 635
2016/10/19 337 132 +8 202
2016/10/18 328 930 -41 121
2016/10/17 370 051 +7 982
2016/10/16 362 069 -10 279
2016/10/15 372 348 +131 737
2016/10/14 240 611 +193
2016/10/13 240 418 -3 499
2016/10/12 243 917 +19 766
2016/10/11 224 151 +9 486
2016/10/10 214 665 +3 855
2016/10/09 210 810 -1 115
2016/10/08 211 925 -105 732
2016/10/07 317 657 +111 516
2016/10/06 206 141 -91 396
2016/10/05 297 537 +6 732
2016/10/04 290 805

WIDGET FOR YOUR SITE

DOMAINS WITH THE NEAREST RANK

Domain Rank
best-microcontroller-projects.com 298 004
cartier.it 298 005
elremediocasero.com 298 006
qualitymag.com 298 007
chargerforums.com 298 008
roompot.de 298 009
msgjug.com 298 010
shemale-japan.com 298 011
mark-point.jp 298 012
lentodiilit.fi 298 013
thedesignspace.co 298 014

DOMAINS WITH THE NEAREST RANK BY TLD .de

Domain Rank
klangfuzzis.de 297 928
ufz.de 297 979
vorhilfe.de 297 984
xwords.de 297 997
bpm-media.de 298 000
roompot.de 298 009
mkenyaujerumani.de 298 031
schuessler-salze-liste.de 298 042
zendesk.de 298 061
trainex24.de 298 260
onlinebanking-vrbanknet.de 298 277